Points, West Virginia
Current Conditions -  °F | °C
As of 1:35 AM on Saturday 20 Dec 2014 (Local Time) from KCBE Reporting Station
Scattered Clouds Scattered Clouds  
Wind Chill: 32°   Ceiling: Unl
Heat Index: 32°   Visibility: 10mi
Dew Point: 21°   Wind: 0mph
Humidity: 64%   Direction: NA
Pressure: 30.29"   Gusts: NA
Location:  39.44°N, 78.61°W
Report Text: KCBE 200635Z AUTO 00000KT 10SM SCT034 00/M06 A3029 RMK AO1
Loading
Personal Weather Stations






























Interactive Weather Map New forecast layout! Learn more

10-Day Weather Forecast

Advertisements
Track Severe Weather on mobile